Terminal Aerodrome Forecast
Issued by NWS Blacksburg, VA

Home | Current Version | Previous Version | Text Only | Print | Product List | Glossary On
Versions: 1 2 3 4 5 6 7 8 9 10 11 12 13 14 15 16 17
000
FTUS41 KRNK 191128
TAFROA
TAF
KROA 191128Z 1912/2012 32007KT P6SM SKC WS020/30035KT
     FM191500 28009G19KT P6SM SKC
     FM192300 28005KT P6SM SKC
     FM200500 28004KT P6SM SKC WS020/29035KT=

USA.gov is the U.S. government's official web portal to all federal, state and local government web resources and services.